Strona główna
METAR-TAF:

METAR-TAF

Lotnisko :

Aurillac, Francja

Szerokość geograficzna: 44-53N, Długość geograficzna: 002-25E, wysokość: 639 m

Aktualna obserwacja pogody

Raport powstał 1 godzina i 48 minut temu, godzina 14:00 UTC
Wiatr 3 kt od zachód, zmienny między południowo-południowy zachód i północno-północny zachód
Temperatura 16°C
Wilgotność 77%
Ciśnienie 1002 hPa
Widzialność 10 km lub więcej

METAR: LFLW 041400Z AUTO 27003KT 200V330 9999 ////// 16/12 Q1002

czas: 17:48 (15:48 UTC)


TAF: brakujący

Obserwacja i prognoza pogody dla ponad 4000 lotnisk (raport METAR i TAF).

Dostępne stacje oznaczono żółtymi i czerwonymi punktami na mapie.

Najedź kursorem aby zobaczyć nazwę stacji.

Kliknij aby zobaczyć obserwacje i prognozy pogody.

Aby zmienić mapę: kliknij na zielony przycisk z czarnym krzyżykiem, aby powiększyć; na zielony przycisk z myślnikiem, aby pomniejszyć; na zielone strzałki, aby przejść do map sąsiednich.


METAR-TAF: